• Join FlightAware (Why Join?)
  • Login
  • US Flag 
07:08AM EDT


 

Airport Tracker/Info


-or-


 

Live Flight TrackerFlight Track Log ✈ N724AE ✈ 23-Apr-2013 ✈ KCVG - KDFW

Flight Track Log - Related Links

Times and Time Zones

All times are in EDT time to prevent confusion due to time zone crossing. See the N724AE flight status page for this flight to view local times or setup timezone preferences in your user account.

Time Position Orientation Groundspeed Altitude Reporting Facility
EDT Latitude Longitude Course Direction KTS MPH feet Rate Location/Type
08:08PM 39.0500 -84.6833 208° Southwest 163 188 1,400  Level Cincinnati TRACON
08:08PM 39.0167 -84.7167 218° Southwest 183 211 3,100 2,580 Climbing Cincinnati TRACON
08:09PM 38.9667 -84.7333 195° South 210 242 5,800 2,700 Climbing Cincinnati TRACON
08:10PM 38.7890 -84.7541 210° Southwest  Level FlightAware Approximate
08:10PM 38.9167 -84.7667 207° Southwest 242 278 8,600  Level Cincinnati TRACON
08:11PM 38.7106 -84.8129 210° Southwest  Level FlightAware Approximate
08:12PM 38.6309 -84.8684 208° Southwest  Level FlightAware Approximate
08:12PM 38.8200 -84.8108 200° South 264 304 11,000  Level Indianapolis Center
08:13PM 38.5504 -84.9220 208° Southwest  Level FlightAware Approximate
08:13PM 38.7356 -84.8547 202° Southwest 318 366 12,200  Level Indianapolis Center
08:14PM 38.6456 -84.8978 200° South 339 390 13,700 1,500 Climbing Indianapolis Center
08:15PM 38.5483 -84.9472 202° Southwest 355 409 15,300 1,680 Climbing Indianapolis Center
08:16PM 38.4553 -84.9922 201° Southwest 357 411 17,200 1,800 Climbing Indianapolis Center
08:17PM 38.3642 -85.0381 202° Southwest 353 406 19,100 1,620 Climbing Indianapolis Center
08:18PM 38.2997 -85.1231 226° Southwest 336 387 20,600 1,440 Climbing Indianapolis Center
08:19PM 38.2561 -85.2250 241° Southwest 346 398 22,100 1,560 Climbing Indianapolis Center
08:20PM 38.1994 -85.3575 241° Southwest 352 405 23,900 1,560 Climbing Indianapolis Center
08:21PM 38.1514 -85.4686 241° Southwest 356 410 25,400 1,440 Climbing Indianapolis Center
08:22PM 38.1017 -85.5806 241° Southwest 361 415 26,900 1,440 Climbing Indianapolis Center
08:23PM 38.0517 -85.6878 239° Southwest 355 409 28,400 1,440 Climbing Indianapolis Center
08:24PM 38.0011 -85.7958 239° Southwest 354 407 29,900 1,440 Climbing Indianapolis Center
08:25PM 37.9489 -85.9050 239° Southwest 358 412 31,400 1,440 Climbing Indianapolis Center
08:26PM 37.8969 -86.0139 239° Southwest 360 414 32,900 1,440 Climbing Indianapolis Center
08:27PM 37.8447 -86.1250 239° Southwest 365 420 34,400 1,260 Climbing Indianapolis Center
08:28PM 37.7886 -86.2411 239° Southwest 363 418 35,600 780 Climbing Indianapolis Center
08:29PM 37.7350 -86.3542 239° Southwest 370 426 36,000 180 Climbing Indianapolis Center
08:30PM 37.6792 -86.4675 238° Southwest 375 432 36,000  Level Indianapolis Center
08:31PM 37.6156 -86.6000 239° Southwest 381 438 36,000  Level Indianapolis Center
08:32PM 37.5606 -86.7136 239° Southwest 379 436 36,000  Level Indianapolis Center
08:33PM 37.5050 -86.8275 238° Southwest 373 429 36,000  Level Indianapolis Center
08:34PM 37.4500 -86.9397 238° Southwest 374 430 36,000  Level Indianapolis Center
08:35PM 37.3822 -87.0786 238° Southwest 377 434 36,000  Level Memphis Center
08:36PM 37.3289 -87.1906 239° Southwest 382 440 36,000  Level Memphis Center
08:37PM 37.2714 -87.3022 237° Southwest 382 440 36,000  Level Memphis Center
08:38PM 37.2178 -87.4111 238° Southwest 377 434 36,000  Level Memphis Center
08:39PM 37.1642 -87.5222 239° Southwest 377 434 36,000  Level Memphis Center
08:40PM 37.1103 -87.6308 238° Southwest 377 434 36,000  Level Memphis Center
08:41PM 37.0542 -87.7419 238° Southwest 377 434 36,000  Level Memphis Center
08:42PM 37.0022 -87.8503 239° Southwest 377 434 36,000  Level Memphis Center
08:43PM 36.9461 -87.9611 238° Southwest 377 434 36,000  Level Memphis Center
08:44PM 36.8900 -88.0717 238° Southwest 377 434 36,000  Level Memphis Center
08:45PM 36.8378 -88.1794 239° Southwest 377 434 36,000  Level Memphis Center
08:46PM 36.7833 -88.2869 238° Southwest 377 434 36,000  Level Memphis Center
08:47PM 36.7267 -88.3972 237° Southwest 377 434 36,000  Level Memphis Center
08:48PM 36.6719 -88.5022 237° Southwest 377 434 36,000  Level Memphis Center
08:49PM 36.6153 -88.6119 237° Southwest 377 434 36,000  Level Memphis Center
08:50PM 36.5583 -88.7164 236° Southwest 377 434 36,000  Level Memphis Center
08:51PM 36.5056 -88.8208 238° Southwest 377 434 36,000  Level Memphis Center
08:52PM 36.4483 -88.9250 236° Southwest 377 434 36,000  Level Memphis Center
08:53PM 36.3933 -89.0319 237° Southwest 377 434 36,000  Level Memphis Center
08:54PM 36.3361 -89.1358 236° Southwest 377 434 36,000  Level Memphis Center
08:55PM 36.2869 -89.2369 239° Southwest 383 441 36,000  Level Memphis Center
08:56PM 36.2275 -89.3433 235° Southwest 383 441 36,000  Level Memphis Center
08:57PM 36.1719 -89.4494 237° Southwest 383 441 36,000  Level Memphis Center
08:58PM 36.1183 -89.5553 238° Southwest 383 441 36,000  Level Memphis Center
08:59PM 36.0628 -89.6611 237° Southwest 373 429 36,000  Level Memphis Center
09:00PM 36.0050 -89.7694 237° Southwest 373 429 36,000  Level Memphis Center
09:01PM 35.9469 -89.8750 236° Southwest 373 429 36,000  Level Memphis Center
09:02PM 35.8933 -89.9803 238° Southwest 373 429 36,000  Level Memphis Center
09:03PM 35.8350 -90.0856 236° Southwest 373 429 36,000  Level Memphis Center
09:04PM 35.7769 -90.1933 236° Southwest 373 429 36,000  Level Memphis Center
09:05PM 35.7186 -90.2983 236° Southwest 373 429 36,000  Level Memphis Center
09:06PM 35.6644 -90.4106 239° Southwest 367 422 36,000  Level Memphis Center
09:07PM 35.6081 -90.5153 237° Southwest 367 422 36,000  Level Memphis Center
09:08PM 35.5514 -90.6225 237° Southwest 373 429 36,000  Level Memphis Center
09:09PM 35.4950 -90.7242 236° Southwest 373 429 36,000  Level Memphis Center
09:10PM 35.4361 -90.8311 236° Southwest 373 429 36,000  Level Memphis Center
09:11PM 35.3817 -90.9325 237° Southwest 373 429 36,000  Level Memphis Center
09:12PM 35.3247 -91.0339 235° Southwest 373 429 36,000  Level Memphis Center
09:13PM 35.2658 -91.1353 235° Southwest 373 429 36,000  Level Memphis Center
09:14PM 35.2108 -91.2339 236° Southwest 366 421 36,000  Level Memphis Center
09:15PM 35.1539 -91.3350 235° Southwest 366 421 36,000  Level Memphis Center
09:16PM 35.0967 -91.4356 235° Southwest 367 422 36,000  Level Memphis Center
09:17PM 35.0394 -91.5364 235° Southwest 367 422 36,000  Level Memphis Center
09:18PM 34.9842 -91.6394 237° Southwest 362 417 36,000  Level Memphis Center
09:19PM 34.9289 -91.7400 236° Southwest 362 417 36,000  Level Memphis Center
09:20PM 34.8736 -91.8353 235° Southwest 362 417 36,000  Level Memphis Center
09:21PM 34.8181 -91.9356 236° Southwest 362 417 36,000  Level Memphis Center
09:22PM 34.7603 -92.0381 236° Southwest 362 417 36,000  Level Memphis Center
09:23PM 34.7028 -92.1356 234° Southwest 368 423 36,000  Level Memphis Center
09:24PM 34.6614 -92.2433 245° Southwest 362 417 36,000  Level Memphis Center
09:25PM 34.6325 -92.3536 252° West 352 405 36,000  Level Memphis Center
09:26PM 34.6036 -92.4639 252° West 347 399 36,000  Level Memphis Center
09:27PM 34.5725 -92.5767 252° West 347 399 36,000  Level Memphis Center
09:28PM 34.5414 -92.6869 251° West 347 399 36,000  Level Memphis Center
09:29PM 34.5142 -92.7994 254° West 342 394 36,000  Level Memphis Center
09:30PM 34.4894 -92.8844 251° West 342 394 36,000  Level Memphis Center
09:31PM 34.4578 -93.0044 252° West 342 394 36,000  Level Memphis Center
09:32PM 34.4281 -93.1169 252° West 347 399 36,000  Level Memphis Center
09:33PM 34.3964 -93.2267 251° West 352 405 36,000  Level Memphis Center
09:34PM 34.3689 -93.3389 253° West 352 405 36,000  Level Memphis Center
09:35PM 34.3383 -93.4575 253° West 346 398 36,000  Level Fort Worth Center
09:36PM 34.3106 -93.5667 253° West 335 386 36,000  Level Fort Worth Center
09:37PM 34.2783 -93.6739 250° West 340 391 36,000  Level Fort Worth Center
09:38PM 34.2481 -93.7831 251° West 345 397 36,000  Level Fort Worth Center
09:39PM 34.2178 -93.8922 251° West 350 403 36,000  Level Fort Worth Center
09:40PM 34.1875 -94.0014 251° West 350 403 36,000 -60 Level Fort Worth Center
09:41PM 34.1572 -94.1131 252° West 350 403 35,900 -600 Descending Fort Worth Center
09:42PM 34.1264 -94.2197 251° West 350 403 34,900 -1,020 Descending Fort Worth Center
09:43PM 34.1478 -94.3242 284° West 343 395 33,900 -1,020 Descending Fort Worth Center
09:44PM 34.1778 -94.4336 288° West 341 392 32,900 -960 Descending Fort Worth Center
09:45PM 34.2117 -94.5481 290° West 347 399 32,000 -960 Descending Fort Worth Center
09:46PM 34.2328 -94.6553 283° West 342 394 31,000 -1,020 Descending Fort Worth Center
09:47PM 34.2036 -94.7542 250° West 322 371 30,000 -1,020 Descending Fort Worth Center
09:48PM 34.1511 -94.8411 234° Southwest 315 362 29,000 -1,020 Descending Fort Worth Center
09:49PM 34.0553 -94.8489 184° South 286 329 28,000 -1,020 Descending Fort Worth Center
09:50PM 33.9506 -94.8269 170° South 332 382 27,000 -960 Descending Fort Worth Center
09:51PM 33.8703 -94.8744 206° Southwest 310 357 26,100 -960 Descending Fort Worth Center
09:52PM 33.8322 -94.9656 243° Southwest 285 328 25,100 -960 Descending Fort Worth Center
09:53PM 33.8053 -95.0764 254° West 309 356 24,200 -600 Descending Fort Worth Center
09:54PM 33.7781 -95.1969 255° West 345 397 24,000 -120 Descending Fort Worth Center
09:55PM 33.7511 -95.3150 255° West 364 419 24,000  Level Fort Worth Center
09:56PM 33.7236 -95.4306 254° West 369 425 24,000  Level Fort Worth Center
09:57PM 33.6964 -95.5511 255° West 369 425 24,000  Level Fort Worth Center
09:58PM 33.6689 -95.6789 256° West 374 430 24,000  Level Fort Worth Center
09:59PM 33.6411 -95.7967 254° West 369 425 24,000  Level Fort Worth Center
10:00PM 33.6197 -95.9019 256° West 369 425 24,000 -900 Level Fort Worth Center
10:01PM 33.5708 -96.0100 242° Southwest 364 419 22,300 -1,980 Descending Fort Worth Center
10:02PM 33.5197 -96.1228 241° Southwest 353 406 20,100 -2,040 Descending Fort Worth Center
10:03PM 33.4831 -96.2131 244° Southwest 347 399 18,300 -1,860 Descending Fort Worth Center
10:04PM 33.4361 -96.3181 242° Southwest 335 386 16,400 -1,740 Descending Fort Worth Center
10:05PM 33.4011 -96.3958 242° Southwest 315 362 14,900 -1,560 Descending Fort Worth Center
10:06PM 33.3350 -96.4786 226° Southwest 310 357 13,300 -1,500 Descending Fort Worth Center
10:07PM 33.2792 -96.5436 224° Southwest 310 357 11,900 -1,200 Descending Fort Worth Center
10:08PM 33.2192 -96.6164 225° Southwest 317 365 11,000 -480 Descending Fort Worth Center
10:09PM 33.1528 -96.6939 224° Southwest 310 357 11,000  Level Fort Worth Center
10:10PM 33.0989 -96.7614 226° Southwest 310 357 11,000  Level Fort Worth Center
10:11PM 33.0500 -96.8000 214° Southwest 305 351 11,000 60 Level Dallas / Fort Worth TRACON
10:12PM 33.0000 -96.8667 228° Southwest 222 255 11,100  Climbing Dallas / Fort Worth TRACON
10:13PM 32.9500 -96.9000 209° Southwest 226 260 11,100  Level Dallas / Fort Worth TRACON
10:14PM 32.9000 -96.9000 180° South 236 272 11,100 -720 Level Dallas / Fort Worth TRACON
10:15PM 32.8333 -96.9000 180° South 224 258 9,800 -1,440 Descending Dallas / Fort Worth TRACON
10:16PM 32.7667 -96.9000 180° South 218 251 8,200 -1,320 Descending Dallas / Fort Worth TRACON
10:17PM 32.7167 -96.9167 196° South 194 223 7,100 -1,080 Descending Dallas / Fort Worth TRACON
10:18PM 32.6667 -96.9167 180° South 186 214 6,100 -540 Descending Dallas / Fort Worth TRACON
10:19PM 32.6000 -96.9167 180° South 187 215 6,100  Level Dallas / Fort Worth TRACON
10:20PM 32.5667 -96.9333 203° Southwest 206 237 6,100 -120 Level Dallas / Fort Worth TRACON
10:21PM 32.6000 -97.0000 301° West 212 244 5,900 -780 Descending Dallas / Fort Worth TRACON
10:22PM 32.6333 -97.0500 308° West 218 251 4,600 -1,140 Descending Dallas / Fort Worth TRACON
10:23PM 32.6833 -97.0500 360° North 195 224 3,700 -900 Descending Dallas / Fort Worth TRACON